Colorado Springs, CO (80921)

2:12 PM MDT on September 01, 2014 (GMT -0600)
Gleneagle | Change Station
CLOSE
Current Station
Personal Weather Station
Location: Colorado Springs, CO
Elevation: 6811 ft
Nearby Weather Stations

Elev 6811 ft 39.03 °N, 104.83 °W | Updated 14 minutes ago

Partly Cloudy
Partly Cloudy
78.3 °F
Feels Like 79 °F
N
1.1
Wind Variable Wind from ENE

Today
High -- | Low -- °F
--% Chance of Precip.
Yesterday
High -- | Low -- °F
Precip. -- in
6:28 AM 7:29 PM
Waxing Crescent, 43% visible
Pressure 29.88 in
Visibility 10.0 miles
Clouds Few 11000 ft
Heat Index 79 °F
Dew Point 51 °F
Humidity 38%
Rainfall 0.00 in
Snow Depth Not available.
UV 9 out of 12
Pollen 9.80 out of 12
Ozone Good
PM2.5 Good
Flu Activity Not available.
METAR KAFF 011958Z AUTO 13010KT 10SM FEW110 22/09 A3009 RMK AO2 SLP118 T02210086

More Conditions Fewer Conditions

Pressure 29.88 in
Visibility 10.0 miles
Clouds Few 11000 ft
Heat Index 79 °F
Dew Point 51 °F
Humidity 38%
Rainfall 0.00 in
Snow Depth Not available.
UV 9 out of 12
Pollen 9.80 out of 12
Ozone Good
PM2.5 Good
Flu Activity Not available.
METAR KAFF 011958Z AUTO 13010KT 10SM FEW110 22/09 A3009 RMK AO2 SLP118 T02210086

More Conditions Fewer Conditions

10-Day Weather Forecast

Almanac

Astronomy

Sep. 01, 2014 Rise Set
Actual Time 6:28 AM MDT 7:29 PM MDT
Civil Twilight 6:00 AM MDT 7:56 PM MDT
Nautical Twilight 5:28 AM MDT 8:29 PM MDT
Astronomical Twilight 4:54 AM MDT 9:03 PM MDT
Moon 1:13 PM MDT 11:36 PM MDT
Length of Visible Light 13h 56m
Length of Day
13h 01m
Tomorrow will be 2m 26s shorter.
Waxing Crescent, 43% of the Moon is Illuminated
Today
Waxing Crescent
Sep 2
First Quarter
Sep 8
Full
Sep 15
Last Quarter
Sep 24
New

Today's Extremes

State Highs State Lows

Community

WunderPhotos

Upload Photos

1,749,394 photos uploaded!

WunderBlogs® & News

Nearby

Air Quality

  Air Quality AQ Index Pollutant
Yesterday Good
OZONE
Yesterday Good
PM2.5
Current Good
OZONE
Current Good
PM2.5
Monday Good
PM2.5
Monday Good
OZONE
Tuesday Good
PM2.5
Tuesday Good
OZONE

Snow Depth

Station Depth Elevation
Michigan Creek 0 in 10600 ft
Rough And Tumble 0 in 10360 ft
Loveland Basin 1 in 11400 ft
Berthoud Summit 0 in 11300 ft
Fremont Pass 177 in 11400 ft

Earthquake Activity

City Distance Mag. Time & Date
Trinidad, Colorado 136 miles 2.7 4:20 AM MDT
2014-08-31
Minimum magnitude displayed is 2.5.

Coastal Water Temperatures

Place Temperature
No Stations Reporting

Nearby Weather Stations